^^
Station Historical Data
Daily Summary for July 17, 2017 Units:  Both    English   Metric
« Previous Day
Next Day »
Daily Weekly Monthly Yearly Custom
  High: Low: Average:
Temperature: 71.8 °F /  22.1 °C 33.1 °F /  0.6 °C 51.1 °F /  10.6 °C
Dew Point: 30.9 °F /  -0.6 °C 14.0 °F /  -10 °C 23.6 °F /  -4.7 °C
Humidity: 66% 19% 36%
Wind Speed: 8.1mph /  13km/h - 0.7mph /  1.1km/h
Wind Gust: 11.0mph /  17.7km/h - -
Wind- - ESE
Pressure: 30.52 in /  1033.4 hPa 30.40 in /  1029.3 hPa -
Precipitation: 0.00 in /  0 mm    
Historical Graphs
 
 
Tabular Data for July 17, 2017
Time Temperature Dew Point Pressure Wind Wind Speed Wind Gust Humidity Rainfall Rate (Hourly) solar Conditions
00:05 39.4 °F /  4.1 °C 14.0 °F /  -10 °C 30.42in /  1030hPa Calm     35% 0.00in /  0mm 0.0 W/m2
00:11 39.0 °F /  3.9 °C 14.4 °F /  -9.8 °C 30.42in /  1030hPa Calm     36% 0.00in /  0mm 0.0 W/m2
00:17 38.8 °F /  3.8 °C 14.7 °F /  -9.6 °C 30.42in /  1030hPa Calm     37% 0.00in /  0mm 0.0 W/m2
00:23 38.7 °F /  3.7 °C 14.5 °F /  -9.7 °C 30.42in /  1030hPa Calm     37% 0.00in /  0mm 0.0 W/m2
00:29 38.7 °F /  3.7 °C 14.5 °F /  -9.7 °C 30.41in /  1029.7hPa Calm     37% 0.00in /  0mm 0.0 W/m2
00:35 38.3 °F /  3.5 °C 14.4 °F /  -9.8 °C 30.42in /  1030hPa Calm     37% 0.00in /  0mm 0.0 W/m2
00:41 38.1 °F /  3.4 °C 14.7 °F /  -9.6 °C 30.41in /  1029.7hPa Calm     38% 0.00in /  0mm 0.0 W/m2
00:48 37.9 °F /  3.3 °C 14.5 °F /  -9.7 °C 30.41in /  1029.7hPa Calm     38% 0.00in /  0mm 0.0 W/m2
00:54 37.8 °F /  3.2 °C 14.4 °F /  -9.8 °C 30.41in /  1029.7hPa Calm     38% 0.00in /  0mm 0.0 W/m2
01:00 37.6 °F /  3.1 °C 14.2 °F /  -9.9 °C 30.41in /  1029.7hPa Calm   1.0mph /  1.6km/h 38% 0.00in /  0mm 0.0 W/m2
01:06 37.4 °F /  3 °C 14.7 °F /  -9.6 °C 30.42in /  1030hPa Calm     39% 0.00in /  0mm 0.0 W/m2
01:12 37.2 °F /  2.9 °C 15.1 °F /  -9.4 °C 30.42in /  1030hPa Calm     40% 0.00in /  0mm 0.0 W/m2
01:18 37.2 °F /  2.9 °C 15.1 °F /  -9.4 °C 30.42in /  1030hPa Calm     40% 0.00in /  0mm 0.0 W/m2
01:24 37.0 °F /  2.8 °C 14.9 °F /  -9.5 °C 30.42in /  1030hPa Calm     40% 0.00in /  0mm 0.0 W/m2
01:30 36.9 °F /  2.7 °C 14.7 °F /  -9.6 °C 30.42in /  1030hPa Calm   1.0mph /  1.6km/h 40% 0.00in /  0mm 0.0 W/m2
01:36 36.7 °F /  2.6 °C 14.5 °F /  -9.7 °C 30.42in /  1030hPa Calm     40% 0.00in /  0mm 0.0 W/m2
01:42 36.7 °F /  2.6 °C 15.3 °F /  -9.3 °C 30.42in /  1030hPa Calm     41% 0.00in /  0mm 0.0 W/m2
01:48 36.3 °F /  2.4 °C 14.9 °F /  -9.5 °C 30.42in /  1030hPa Calm     41% 0.00in /  0mm 0.0 W/m2
01:55 36.3 °F /  2.4 °C 14.9 °F /  -9.5 °C 30.42in /  1030hPa Calm     41% 0.00in /  0mm 0.0 W/m2
02:01 36.1 °F /  2.3 °C 15.3 °F /  -9.3 °C 30.42in /  1030hPa Calm     42% 0.00in /  0mm 0.0 W/m2
02:07 36.1 °F /  2.3 °C 15.3 °F /  -9.3 °C 30.42in /  1030hPa Calm     42% 0.00in /  0mm 0.0 W/m2
02:13 36.0 °F /  2.2 °C 15.6 °F /  -9.1 °C 30.42in /  1030hPa Calm     43% 0.00in /  0mm 0.0 W/m2
02:19 36.0 °F /  2.2 °C 15.1 °F /  -9.4 °C 30.42in /  1030hPa Calm     42% 0.00in /  0mm 0.0 W/m2
02:25 35.8 °F /  2.1 °C 14.9 °F /  -9.5 °C 30.43in /  1030.4hPa Calm   1.0mph /  1.6km/h 42% 0.00in /  0mm 0.0 W/m2
02:31 35.6 °F /  2 °C 15.3 °F /  -9.3 °C 30.43in /  1030.4hPa Calm   1.0mph /  1.6km/h 43% 0.00in /  0mm 0.0 W/m2
02:37 35.4 °F /  1.9 °C 15.1 °F /  -9.4 °C 30.42in /  1030hPa Calm   1.0mph /  1.6km/h 43% 0.00in /  0mm 0.0 W/m2
02:43 35.4 °F /  1.9 °C 15.1 °F /  -9.4 °C 30.42in /  1030hPa Calm     43% 0.00in /  0mm 0.0 W/m2
02:49 35.2 °F /  1.8 °C 15.4 °F /  -9.2 °C 30.42in /  1030hPa Calm     44% 0.00in /  0mm 0.0 W/m2
02:55 35.2 °F /  1.8 °C 15.4 °F /  -9.2 °C 30.42in /  1030hPa Calm     44% 0.00in /  0mm 0.0 W/m2
03:01 35.1 °F /  1.7 °C 15.3 °F /  -9.3 °C 30.42in /  1030hPa Calm     44% 0.00in /  0mm 0.0 W/m2
03:07 35.1 °F /  1.7 °C 15.3 °F /  -9.3 °C 30.42in /  1030hPa Calm     44% 0.00in /  0mm 0.0 W/m2
03:13 35.1 °F /  1.7 °C 14.9 °F /  -9.5 °C 30.42in /  1030hPa Calm   1.0mph /  1.6km/h 43% 0.00in /  0mm 0.0 W/m2
03:19 34.9 °F /  1.6 °C 14.7 °F /  -9.6 °C 30.43in /  1030.4hPa Calm   1.0mph /  1.6km/h 43% 0.00in /  0mm 0.0 W/m2
03:25 34.9 °F /  1.6 °C 15.3 °F /  -9.3 °C 30.42in /  1030hPa Calm     44% 0.00in /  0mm 0.0 W/m2
03:32 34.9 °F /  1.6 °C 15.3 °F /  -9.3 °C 30.42in /  1030hPa Calm     44% 0.00in /  0mm 0.0 W/m2
03:38 34.7 °F /  1.5 °C 15.4 °F /  -9.2 °C 30.43in /  1030.4hPa Calm     45% 0.00in /  0mm 0.0 W/m2
03:44 34.5 °F /  1.4 °C 15.4 °F /  -9.2 °C 30.43in /  1030.4hPa Calm     45% 0.00in /  0mm 0.0 W/m2
03:50 34.5 °F /  1.4 °C 14.9 °F /  -9.5 °C 30.43in /  1030.4hPa Calm     44% 0.00in /  0mm 0.0 W/m2
03:56 34.3 °F /  1.3 °C 14.7 °F /  -9.6 °C 30.43in /  1030.4hPa Calm     44% 0.00in /  0mm 0.0 W/m2
04:02 34.3 °F /  1.3 °C 15.3 °F /  -9.3 °C 30.43in /  1030.4hPa Calm   1.0mph /  1.6km/h 45% 0.00in /  0mm 0.0 W/m2
04:08 34.2 °F /  1.2 °C 15.1 °F /  -9.4 °C 30.43in /  1030.4hPa Calm     45% 0.00in /  0mm 0.0 W/m2
04:15 34.2 °F /  1.2 °C 15.1 °F /  -9.4 °C 30.43in /  1030.4hPa Calm     45% 0.00in /  0mm 0.0 W/m2
04:21 34.0 °F /  1.1 °C 14.9 °F /  -9.5 °C 30.43in /  1030.4hPa Calm     45% 0.00in /  0mm 0.0 W/m2
04:27 34.0 °F /  1.1 °C 15.4 °F /  -9.2 °C 30.43in /  1030.4hPa Calm     46% 0.00in /  0mm 0.0 W/m2
04:33 34.0 °F /  1.1 °C 14.9 °F /  -9.5 °C 30.43in /  1030.4hPa Calm   2.0mph /  3.2km/h 45% 0.00in /  0mm 0.0 W/m2
04:39 33.6 °F /  0.9 °C 15.1 °F /  -9.4 °C 30.43in /  1030.4hPa Calm     46% 0.00in /  0mm 0.0 W/m2
04:45 33.6 °F /  0.9 °C 14.5 °F /  -9.7 °C 30.43in /  1030.4hPa Calm     45% 0.00in /  0mm 0.0 W/m2
04:52 33.6 °F /  0.9 °C 15.1 °F /  -9.4 °C 30.43in /  1030.4hPa Calm     46% 0.00in /  0mm 0.0 W/m2
04:58 33.6 °F /  0.9 °C 15.6 °F /  -9.1 °C 30.43in /  1030.4hPa Calm     47% 0.00in /  0mm 0.0 W/m2
05:04 33.8 °F /  1 °C 15.3 °F /  -9.3 °C 30.43in /  1030.4hPa Calm     46% 0.00in /  0mm 0.0 W/m2
05:10 33.8 °F /  1 °C 15.3 °F /  -9.3 °C 30.43in /  1030.4hPa Calm     46% 0.00in /  0mm 0.0 W/m2
05:16 33.6 °F /  0.9 °C 15.1 °F /  -9.4 °C 30.44in /  1030.7hPa Calm   1.0mph /  1.6km/h 46% 0.00in /  0mm 0.0 W/m2
05:22 33.6 °F /  0.9 °C 15.6 °F /  -9.1 °C 30.44in /  1030.7hPa Calm   3.0mph /  4.8km/h 47% 0.00in /  0mm 0.0 W/m2
05:28 33.6 °F /  0.9 °C 15.6 °F /  -9.1 °C 30.44in /  1030.7hPa Calm   1.0mph /  1.6km/h 47% 0.00in /  0mm 0.0 W/m2
05:35 33.6 °F /  0.9 °C 16.0 °F /  -8.9 °C 30.44in /  1030.7hPa Calm     48% 0.00in /  0mm 0.0 W/m2
05:41 33.6 °F /  0.9 °C 16.0 °F /  -8.9 °C 30.45in /  1031hPa Calm     48% 0.00in /  0mm 0.0 W/m2
05:47 33.6 °F /  0.9 °C 16.9 °F /  -8.4 °C 30.45in /  1031hPa Calm     50% 0.00in /  0mm 0.0 W/m2
05:53 33.6 °F /  0.9 °C 16.0 °F /  -8.9 °C 30.45in /  1031hPa Calm     48% 0.00in /  0mm 0.0 W/m2
05:59 33.4 °F /  0.8 °C 15.4 °F /  -9.2 °C 30.45in /  1031hPa Calm     47% 0.00in /  0mm 0.0 W/m2
06:05 33.3 °F /  0.7 °C 16.2 °F /  -8.8 °C 30.45in /  1031hPa Calm   1.0mph /  1.6km/h 49% 0.00in /  0mm 0.0 W/m2
06:11 33.1 °F /  0.6 °C 16.0 °F /  -8.9 °C 30.46in /  1031.4hPa Calm     49% 0.00in /  0mm 0.0 W/m2
06:18 33.1 °F /  0.6 °C 16.5 °F /  -8.6 °C 30.46in /  1031.4hPa Calm     50% 0.00in /  0mm 0.0 W/m2
06:24 33.1 °F /  0.6 °C 16.9 °F /  -8.4 °C 30.46in /  1031.4hPa Calm     51% 0.00in /  0mm 0.0 W/m2
06:30 33.1 °F /  0.6 °C 16.5 °F /  -8.6 °C 30.47in /  1031.7hPa Calm     50% 0.00in /  0mm 0.0 W/m2
06:36 33.1 °F /  0.6 °C 16.9 °F /  -8.4 °C 30.47in /  1031.7hPa Calm   1.0mph /  1.6km/h 51% 0.00in /  0mm 5.0 W/m2
06:42 33.1 °F /  0.6 °C 17.4 °F /  -8.1 °C 30.47in /  1031.7hPa Calm     52% 0.00in /  0mm 7.0 W/m2
06:48 33.3 °F /  0.7 °C 18.0 °F /  -7.8 °C 30.47in /  1031.7hPa Calm     53% 0.00in /  0mm 9.0 W/m2
06:54 33.4 °F /  0.8 °C 17.8 °F /  -7.9 °C 30.48in /  1032.1hPa Calm     52% 0.00in /  0mm 11.0 W/m2
07:01 33.4 °F /  0.8 °C 17.8 °F /  -7.9 °C 30.48in /  1032.1hPa Calm   1.0mph /  1.6km/h 52% 0.00in /  0mm 12.0 W/m2
07:07 33.6 °F /  0.9 °C 18.3 °F /  -7.6 °C 30.48in /  1032.1hPa Calm   1.0mph /  1.6km/h 53% 0.00in /  0mm 14.0 W/m2
07:13 34.0 °F /  1.1 °C 17.8 °F /  -7.9 °C 30.48in /  1032.1hPa Calm   1.0mph /  1.6km/h 51% 0.00in /  0mm 14.0 W/m2
07:19 34.3 °F /  1.3 °C 18.1 °F /  -7.7 °C 30.49in /  1032.4hPa Calm   1.0mph /  1.6km/h 51% 0.00in /  0mm 16.0 W/m2
07:25 34.9 °F /  1.6 °C 18.5 °F /  -7.5 °C 30.49in /  1032.4hPa Calm   1.0mph /  1.6km/h 51% 0.00in /  0mm 18.0 W/m2
07:31 35.2 °F /  1.8 °C 18.9 °F /  -7.3 °C 30.49in /  1032.4hPa Calm     51% 0.00in /  0mm 19.0 W/m2
07:38 36.0 °F /  2.2 °C 19.6 °F /  -6.9 °C 30.49in /  1032.4hPa Calm     51% 0.00in /  0mm 19.0 W/m2
07:44 36.9 °F /  2.7 °C 21.7 °F /  -5.7 °C 30.49in /  1032.4hPa ESE 0.9mph /  1.4km/h 1.0mph /  1.6km/h 54% 0.00in /  0mm 21.0 W/m2
07:50 38.7 °F /  3.7 °C 28.2 °F /  -2.1 °C 30.49in /  1032.4hPa SE 4.0mph /  6.4km/h 7.0mph /  11.3km/h 66% 0.00in /  0mm 21.0 W/m2
07:58 41.2 °F /  5.1 °C 29.5 °F /  -1.4 °C 30.49in /  1032.4hPa NE 8.1mph /  13km/h 8.1mph /  13km/h 63% 0.00in /  0mm 23.0 W/m2
08:04 42.6 °F /  5.9 °C 30.2 °F /  -1 °C 30.49in /  1032.4hPa ESE 2.9mph /  4.7km/h 10.0mph /  16.1km/h 61% 0.00in /  0mm 25.0 W/m2
08:10 44.1 °F /  6.7 °C 30.2 °F /  -1 °C 30.50in /  1032.7hPa ENE 0.9mph /  1.4km/h 3.0mph /  4.8km/h 58% 0.00in /  0mm 33.0 W/m2
08:16 45.1 °F /  7.3 °C 30.4 °F /  -0.9 °C 30.50in /  1032.7hPa East 0.9mph /  1.4km/h 11.0mph /  17.7km/h 56% 0.00in /  0mm 330.0 W/m2
08:23 46.0 °F /  7.8 °C 30.4 °F /  -0.9 °C 30.50in /  1032.7hPa ENE 2.0mph /  3.2km/h 9.0mph /  14.5km/h 54% 0.00in /  0mm 350.0 W/m2
08:29 46.9 °F /  8.3 °C 30.2 °F /  -1 °C 30.50in /  1032.7hPa East 4.9mph /  7.9km/h 8.0mph /  12.9km/h 52% 0.00in /  0mm 373.0 W/m2
08:31 47.1 °F /  8.4 °C 29.8 °F /  -1.2 °C 30.50in /  1032.7hPa ENE 2.0mph /  3.2km/h 6.0mph /  9.7km/h 51% 0.00in /  0mm 378.0 W/m2
08:39 48.0 °F /  8.9 °C 29.8 °F /  -1.2 °C 30.51in /  1033.1hPa North 2.9mph /  4.7km/h 4.0mph /  6.4km/h 49% 0.00in /  0mm 401.0 W/m2
08:45 48.6 °F /  9.2 °C 29.8 °F /  -1.2 °C 30.51in /  1033.1hPa Calm   8.0mph /  12.9km/h 48% 0.00in /  0mm 424.0 W/m2
08:51 49.3 °F /  9.6 °C 30.4 °F /  -0.9 °C 30.52in /  1033.4hPa ESE 2.9mph /  4.7km/h 6.0mph /  9.7km/h 48% 0.00in /  0mm 441.0 W/m2
08:57 49.5 °F /  9.7 °C 30.0 °F /  -1.1 °C 30.51in /  1033.1hPa Calm   8.0mph /  12.9km/h 47% 0.00in /  0mm 457.0 W/m2
09:03 50.2 °F /  10.1 °C 30.2 °F /  -1 °C 30.51in /  1033.1hPa NE 4.0mph /  6.4km/h 7.0mph /  11.3km/h 46% 0.00in /  0mm 473.0 W/m2
09:10 50.7 °F /  10.4 °C 30.2 °F /  -1 °C 30.51in /  1033.1hPa ENE 2.0mph /  3.2km/h 7.0mph /  11.3km/h 45% 0.00in /  0mm 494.0 W/m2
09:16 51.3 °F /  10.7 °C 30.6 °F /  -0.8 °C 30.51in /  1033.1hPa Calm   9.0mph /  14.5km/h 45% 0.00in /  0mm 508.0 W/m2
09:22 51.8 °F /  11 °C 30.0 °F /  -1.1 °C 30.51in /  1033.1hPa East 6.9mph /  11.1km/h 7.0mph /  11.3km/h 43% 0.00in /  0mm 524.0 W/m2
09:28 52.3 °F /  11.3 °C 30.6 °F /  -0.8 °C 30.51in /  1033.1hPa Calm   7.0mph /  11.3km/h 43% 0.00in /  0mm 538.0 W/m2
09:34 53.1 °F /  11.7 °C 30.0 °F /  -1.1 °C 30.50in /  1032.7hPa East 0.9mph /  1.4km/h 6.0mph /  9.7km/h 41% 0.00in /  0mm 554.0 W/m2
09:40 53.4 °F /  11.9 °C 29.7 °F /  -1.3 °C 30.51in /  1033.1hPa SE 0.9mph /  1.4km/h 5.0mph /  8km/h 40% 0.00in /  0mm 568.0 W/m2
09:46 54.1 °F /  12.3 °C 30.4 °F /  -0.9 °C 30.50in /  1032.7hPa Calm   1.0mph /  1.6km/h 40% 0.00in /  0mm 582.0 W/m2
09:53 54.9 °F /  12.7 °C 29.7 °F /  -1.3 °C 30.50in /  1032.7hPa NE 4.0mph /  6.4km/h 7.0mph /  11.3km/h 38% 0.00in /  0mm 594.0 W/m2
09:59 55.6 °F /  13.1 °C 30.4 °F /  -0.9 °C 30.50in /  1032.7hPa NE 2.0mph /  3.2km/h 6.0mph /  9.7km/h 38% 0.00in /  0mm 606.0 W/m2
10:05 56.3 °F /  13.5 °C 29.7 °F /  -1.3 °C 30.50in /  1032.7hPa ENE 6.0mph /  9.7km/h 8.0mph /  12.9km/h 36% 0.00in /  0mm 617.0 W/m2
10:11 56.7 °F /  13.7 °C 30.0 °F /  -1.1 °C 30.50in /  1032.7hPa East 2.0mph /  3.2km/h 5.0mph /  8km/h 36% 0.00in /  0mm 628.0 W/m2
10:17 57.4 °F /  14.1 °C 30.0 °F /  -1.1 °C 30.50in /  1032.7hPa ESE 2.0mph /  3.2km/h 5.0mph /  8km/h 35% 0.00in /  0mm 640.0 W/m2
10:23 58.3 °F /  14.6 °C 30.0 °F /  -1.1 °C 30.50in /  1032.7hPa Calm   4.0mph /  6.4km/h 34% 0.00in /  0mm 649.0 W/m2
10:29 58.8 °F /  14.9 °C 29.8 °F /  -1.2 °C 30.50in /  1032.7hPa ENE 0.9mph /  1.4km/h 4.0mph /  6.4km/h 33% 0.00in /  0mm 659.0 W/m2
10:35 59.4 °F /  15.2 °C 29.5 °F /  -1.4 °C 30.50in /  1032.7hPa Calm   5.0mph /  8km/h 32% 0.00in /  0mm 666.0 W/m2
10:42 60.1 °F /  15.6 °C 29.3 °F /  -1.5 °C 30.49in /  1032.4hPa ENE 4.9mph /  7.9km/h 7.0mph /  11.3km/h 31% 0.00in /  0mm 675.0 W/m2
10:48 60.6 °F /  15.9 °C 28.9 °F /  -1.7 °C 30.49in /  1032.4hPa ESE 2.0mph /  3.2km/h 10.0mph /  16.1km/h 30% 0.00in /  0mm 682.0 W/m2
10:54 61.0 °F /  16.1 °C 30.9 °F /  -0.6 °C 30.49in /  1032.4hPa NE 2.9mph /  4.7km/h 5.0mph /  8km/h 32% 0.00in /  0mm 687.0 W/m2
11:00 61.3 °F /  16.3 °C 29.7 °F /  -1.3 °C 30.49in /  1032.4hPa Calm   6.0mph /  9.7km/h 30% 0.00in /  0mm 696.0 W/m2
11:06 61.9 °F /  16.6 °C 29.3 °F /  -1.5 °C 30.49in /  1032.4hPa Calm   7.0mph /  11.3km/h 29% 0.00in /  0mm 698.0 W/m2
11:12 62.4 °F /  16.9 °C 28.9 °F /  -1.7 °C 30.48in /  1032.1hPa North 2.0mph /  3.2km/h 9.0mph /  14.5km/h 28% 0.00in /  0mm 705.0 W/m2
11:18 62.8 °F /  17.1 °C 29.1 °F /  -1.6 °C 30.48in /  1032.1hPa NE 4.0mph /  6.4km/h 10.0mph /  16.1km/h 28% 0.00in /  0mm 708.0 W/m2
11:24 63.0 °F /  17.2 °C 27.5 °F /  -2.5 °C 30.48in /  1032.1hPa NNE 6.9mph /  11.1km/h 10.0mph /  16.1km/h 26% 0.00in /  0mm 712.0 W/m2
11:30 63.3 °F /  17.4 °C 28.8 °F /  -1.8 °C 30.48in /  1032.1hPa NNE 4.9mph /  7.9km/h 8.0mph /  12.9km/h 27% 0.00in /  0mm 715.0 W/m2
11:37 63.7 °F /  17.6 °C 28.2 °F /  -2.1 °C 30.48in /  1032.1hPa ENE 2.0mph /  3.2km/h 7.0mph /  11.3km/h 26% 0.00in /  0mm 717.0 W/m2
11:43 64.0 °F /  17.8 °C 27.5 °F /  -2.5 °C 30.47in /  1031.7hPa East 2.0mph /  3.2km/h 6.0mph /  9.7km/h 25% 0.00in /  0mm 719.0 W/m2
11:49 64.6 °F /  18.1 °C 28.0 °F /  -2.2 °C 30.48in /  1032.1hPa ESE 4.0mph /  6.4km/h 4.0mph /  6.4km/h 25% 0.00in /  0mm 719.0 W/m2
11:55 65.1 °F /  18.4 °C 28.4 °F /  -2 °C 30.47in /  1031.7hPa East 2.9mph /  4.7km/h 6.0mph /  9.7km/h 25% 0.00in /  0mm 717.0 W/m2
12:01 65.5 °F /  18.6 °C 28.8 °F /  -1.8 °C 30.47in /  1031.7hPa Calm   1.0mph /  1.6km/h 25% 0.00in /  0mm 719.0 W/m2
12:07 65.8 °F /  18.8 °C 28.0 °F /  -2.2 °C 30.47in /  1031.7hPa ENE 0.9mph /  1.4km/h 5.0mph /  8km/h 24% 0.00in /  0mm 715.0 W/m2
12:13 66.4 °F /  19.1 °C 27.5 °F /  -2.5 °C 30.46in /  1031.4hPa SSE 0.9mph /  1.4km/h 4.0mph /  6.4km/h 23% 0.00in /  0mm 715.0 W/m2
12:19 66.7 °F /  19.3 °C 28.8 °F /  -1.8 °C 30.46in /  1031.4hPa ENE 4.0mph /  6.4km/h 4.0mph /  6.4km/h 24% 0.00in /  0mm 714.0 W/m2
12:25 66.9 °F /  19.4 °C 27.9 °F /  -2.3 °C 30.45in /  1031hPa ESE 0.9mph /  1.4km/h 1.0mph /  1.6km/h 23% 0.00in /  0mm 710.0 W/m2
12:32 67.3 °F /  19.6 °C 29.3 °F /  -1.5 °C 30.45in /  1031hPa SE 2.0mph /  3.2km/h 4.0mph /  6.4km/h 24% 0.00in /  0mm 705.0 W/m2
12:38 67.3 °F /  19.6 °C 28.2 °F /  -2.1 °C 30.44in /  1030.7hPa NE 0.9mph /  1.4km/h 9.0mph /  14.5km/h 23% 0.00in /  0mm 700.0 W/m2
12:44 67.6 °F /  19.8 °C 28.6 °F /  -1.9 °C 30.44in /  1030.7hPa ESE 0.9mph /  1.4km/h 6.0mph /  9.7km/h 23% 0.00in /  0mm 696.0 W/m2
12:50 67.8 °F /  19.9 °C 27.5 °F /  -2.5 °C 30.44in /  1030.7hPa NE 2.0mph /  3.2km/h 8.0mph /  12.9km/h 22% 0.00in /  0mm 689.0 W/m2
12:56 68.2 °F /  20.1 °C 28.9 °F /  -1.7 °C 30.43in /  1030.4hPa SE 2.9mph /  4.7km/h 8.0mph /  12.9km/h 23% 0.00in /  0mm 684.0 W/m2
13:02 68.4 °F /  20.2 °C 29.1 °F /  -1.6 °C 30.43in /  1030.4hPa ESE 0.9mph /  1.4km/h 4.0mph /  6.4km/h 23% 0.00in /  0mm 679.0 W/m2
13:08 68.9 °F /  20.5 °C 29.7 °F /  -1.3 °C 30.43in /  1030.4hPa East 0.9mph /  1.4km/h 6.0mph /  9.7km/h 23% 0.00in /  0mm 666.0 W/m2
13:14 69.3 °F /  20.7 °C 28.8 °F /  -1.8 °C 30.42in /  1030hPa Calm   4.0mph /  6.4km/h 22% 0.00in /  0mm 659.0 W/m2
13:21 69.4 °F /  20.8 °C 28.9 °F /  -1.7 °C 30.42in /  1030hPa Calm   5.0mph /  8km/h 22% 0.00in /  0mm 649.0 W/m2
13:27 69.6 °F /  20.9 °C 29.1 °F /  -1.6 °C 30.42in /  1030hPa SE 4.9mph /  7.9km/h 5.0mph /  8km/h 22% 0.00in /  0mm 636.0 W/m2
13:33 70.0 °F /  21.1 °C 28.2 °F /  -2.1 °C 30.42in /  1030hPa Calm   7.0mph /  11.3km/h 21% 0.00in /  0mm 629.0 W/m2
13:39 70.2 °F /  21.2 °C 28.4 °F /  -2 °C 30.42in /  1030hPa SE 0.9mph /  1.4km/h 6.0mph /  9.7km/h 21% 0.00in /  0mm 617.0 W/m2
13:45 70.5 °F /  21.4 °C 27.5 °F /  -2.5 °C 30.41in /  1029.7hPa North 2.9mph /  4.7km/h 5.0mph /  8km/h 20% 0.00in /  0mm 603.0 W/m2
13:51 70.5 °F /  21.4 °C 27.5 °F /  -2.5 °C 30.41in /  1029.7hPa Calm   6.0mph /  9.7km/h 20% 0.00in /  0mm 589.0 W/m2
13:57 70.5 °F /  21.4 °C 27.5 °F /  -2.5 °C 30.41in /  1029.7hPa North 2.0mph /  3.2km/h 2.0mph /  3.2km/h 20% 0.00in /  0mm 578.0 W/m2
14:03 70.7 °F /  21.5 °C 27.7 °F /  -2.4 °C 30.40in /  1029.3hPa NNE 2.9mph /  4.7km/h 4.0mph /  6.4km/h 20% 0.00in /  0mm 568.0 W/m2
14:09 70.9 °F /  21.6 °C 27.9 °F /  -2.3 °C 30.40in /  1029.3hPa Calm   5.0mph /  8km/h 20% 0.00in /  0mm 552.0 W/m2
14:16 71.2 °F /  21.8 °C 28.0 °F /  -2.2 °C 30.41in /  1029.7hPa Calm   6.0mph /  9.7km/h 20% 0.00in /  0mm 538.0 W/m2
14:22 71.4 °F /  21.9 °C 28.2 °F /  -2.1 °C 30.40in /  1029.3hPa Calm   3.0mph /  4.8km/h 20% 0.00in /  0mm 524.0 W/m2
14:28 71.8 °F /  22.1 °C 28.6 °F /  -1.9 °C 30.40in /  1029.3hPa Calm   4.0mph /  6.4km/h 20% 0.00in /  0mm 508.0 W/m2
14:34 71.8 °F /  22.1 °C 28.6 °F /  -1.9 °C 30.40in /  1029.3hPa Calm   2.0mph /  3.2km/h 20% 0.00in /  0mm 492.0 W/m2
14:40 71.8 °F /  22.1 °C 27.3 °F /  -2.6 °C 30.40in /  1029.3hPa Calm   7.0mph /  11.3km/h 19% 0.00in /  0mm 476.0 W/m2
14:46 71.4 °F /  21.9 °C 27.0 °F /  -2.8 °C 30.40in /  1029.3hPa NW 4.9mph /  7.9km/h 5.0mph /  8km/h 19% 0.00in /  0mm 459.0 W/m2
14:52 71.2 °F /  21.8 °C 26.8 °F /  -2.9 °C 30.40in /  1029.3hPa North 2.9mph /  4.7km/h 3.0mph /  4.8km/h 19% 0.00in /  0mm 441.0 W/m2
14:58 71.2 °F /  21.8 °C 28.0 °F /  -2.2 °C 30.40in /  1029.3hPa Calm   4.0mph /  6.4km/h 20% 0.00in /  0mm 422.0 W/m2
15:04 71.4 °F /  21.9 °C 27.0 °F /  -2.8 °C 30.40in /  1029.3hPa West 0.9mph /  1.4km/h 4.0mph /  6.4km/h 19% 0.00in /  0mm 408.0 W/m2
15:11 71.2 °F /  21.8 °C 26.8 °F /  -2.9 °C 30.40in /  1029.3hPa Calm   1.0mph /  1.6km/h 19% 0.00in /  0mm 392.0 W/m2
15:17 71.2 °F /  21.8 °C 28.0 °F /  -2.2 °C 30.40in /  1029.3hPa NNW 2.0mph /  3.2km/h 7.0mph /  11.3km/h 20% 0.00in /  0mm 369.0 W/m2
15:23 70.9 °F /  21.6 °C 27.9 °F /  -2.3 °C 30.40in /  1029.3hPa Calm   5.0mph /  8km/h 20% 0.00in /  0mm 352.0 W/m2
15:29 70.5 °F /  21.4 °C 27.5 °F /  -2.5 °C 30.40in /  1029.3hPa Calm   2.0mph /  3.2km/h 20% 0.00in /  0mm 330.0 W/m2
15:35 70.3 °F /  21.3 °C 27.3 °F /  -2.6 °C 30.40in /  1029.3hPa NNW 0.9mph /  1.4km/h 4.0mph /  6.4km/h 20% 0.00in /  0mm 54.0 W/m2
15:41 70.2 °F /  21.2 °C 27.1 °F /  -2.7 °C 30.40in /  1029.3hPa Calm   5.0mph /  8km/h 20% 0.00in /  0mm 40.0 W/m2
15:47 70.0 °F /  21.1 °C 27.1 °F /  -2.7 °C 30.41in /  1029.7hPa NNE 0.9mph /  1.4km/h 5.0mph /  8km/h 20% 0.00in /  0mm 37.0 W/m2
15:54 69.6 °F /  20.9 °C 27.9 °F /  -2.3 °C 30.40in /  1029.3hPa NW 0.9mph /  1.4km/h 3.0mph /  4.8km/h 21% 0.00in /  0mm 35.0 W/m2
16:00 69.3 °F /  20.7 °C 26.4 °F /  -3.1 °C 30.41in /  1029.7hPa NE 0.9mph /  1.4km/h 5.0mph /  8km/h 20% 0.00in /  0mm 33.0 W/m2
16:06 68.9 °F /  20.5 °C 27.3 °F /  -2.6 °C 30.40in /  1029.3hPa NNE 2.0mph /  3.2km/h 3.0mph /  4.8km/h 21% 0.00in /  0mm 32.0 W/m2
16:12 68.7 °F /  20.4 °C 27.1 °F /  -2.7 °C 30.41in /  1029.7hPa ENE 4.0mph /  6.4km/h 4.0mph /  6.4km/h 21% 0.00in /  0mm 26.0 W/m2
16:18 68.4 °F /  20.2 °C 27.0 °F /  -2.8 °C 30.41in /  1029.7hPa NNE 4.0mph /  6.4km/h 6.0mph /  9.7km/h 21% 0.00in /  0mm 23.0 W/m2
16:24 68.2 °F /  20.1 °C 26.8 °F /  -2.9 °C 30.41in /  1029.7hPa NE 0.9mph /  1.4km/h 5.0mph /  8km/h 21% 0.00in /  0mm 21.0 W/m2
16:30 67.8 °F /  19.9 °C 27.5 °F /  -2.5 °C 30.41in /  1029.7hPa Calm   3.0mph /  4.8km/h 22% 0.00in /  0mm 19.0 W/m2
16:36 67.5 °F /  19.7 °C 27.3 °F /  -2.6 °C 30.41in /  1029.7hPa North 0.9mph /  1.4km/h 3.0mph /  4.8km/h 22% 0.00in /  0mm 18.0 W/m2
16:43 67.3 °F /  19.6 °C 27.1 °F /  -2.7 °C 30.41in /  1029.7hPa ENE 2.0mph /  3.2km/h 4.0mph /  6.4km/h 22% 0.00in /  0mm 16.0 W/m2
16:49 66.9 °F /  19.4 °C 26.8 °F /  -2.9 °C 30.41in /  1029.7hPa Calm   2.0mph /  3.2km/h 22% 0.00in /  0mm 16.0 W/m2
16:55 66.6 °F /  19.2 °C 27.7 °F /  -2.4 °C 30.42in /  1030hPa Calm     23% 0.00in /  0mm 14.0 W/m2
17:01 66.0 °F /  18.9 °C 28.2 °F /  -2.1 °C 30.42in /  1030hPa Calm   3.0mph /  4.8km/h 24% 0.00in /  0mm 12.0 W/m2
17:07 65.7 °F /  18.7 °C 27.9 °F /  -2.3 °C 30.42in /  1030hPa Calm   1.0mph /  1.6km/h 24% 0.00in /  0mm 11.0 W/m2
17:13 65.3 °F /  18.5 °C 27.5 °F /  -2.5 °C 30.43in /  1030.4hPa NE 0.9mph /  1.4km/h 2.0mph /  3.2km/h 24% 0.00in /  0mm 9.0 W/m2
17:19 64.9 °F /  18.3 °C 27.3 °F /  -2.6 °C 30.43in /  1030.4hPa Calm   2.0mph /  3.2km/h 24% 0.00in /  0mm 5.0 W/m2
17:25 64.4 °F /  18 °C 27.9 °F /  -2.3 °C 30.43in /  1030.4hPa Calm   1.0mph /  1.6km/h 25% 0.00in /  0mm 0.0 W/m2
17:32 63.9 °F /  17.7 °C 27.3 °F /  -2.6 °C 30.43in /  1030.4hPa Calm   2.0mph /  3.2km/h 25% 0.00in /  0mm 0.0 W/m2
17:38 63.1 °F /  17.3 °C 27.7 °F /  -2.4 °C 30.43in /  1030.4hPa Calm   1.0mph /  1.6km/h 26% 0.00in /  0mm 0.0 W/m2
17:44 62.4 °F /  16.9 °C 28.0 °F /  -2.2 °C 30.43in /  1030.4hPa Calm     27% 0.00in /  0mm 0.0 W/m2
17:50 61.5 °F /  16.4 °C 27.1 °F /  -2.7 °C 30.43in /  1030.4hPa Calm   1.0mph /  1.6km/h 27% 0.00in /  0mm 0.0 W/m2
17:56 60.6 °F /  15.9 °C 27.3 °F /  -2.6 °C 30.43in /  1030.4hPa Calm     28% 0.00in /  0mm 0.0 W/m2
18:02 59.9 °F /  15.5 °C 26.8 °F /  -2.9 °C 30.44in /  1030.7hPa Calm     28% 0.00in /  0mm 0.0 W/m2
18:09 59.2 °F /  15.1 °C 27.0 °F /  -2.8 °C 30.43in /  1030.4hPa Calm     29% 0.00in /  0mm 0.0 W/m2
18:15 58.5 °F /  14.7 °C 26.2 °F /  -3.2 °C 30.44in /  1030.7hPa Calm   2.0mph /  3.2km/h 29% 0.00in /  0mm 0.0 W/m2
18:21 57.9 °F /  14.4 °C 26.6 °F /  -3 °C 30.44in /  1030.7hPa NE 0.9mph /  1.4km/h 2.0mph /  3.2km/h 30% 0.00in /  0mm 0.0 W/m2
18:27 57.6 °F /  14.2 °C 26.4 °F /  -3.1 °C 30.44in /  1030.7hPa Calm   2.0mph /  3.2km/h 30% 0.00in /  0mm 0.0 W/m2
18:33 57.0 °F /  13.9 °C 25.9 °F /  -3.4 °C 30.44in /  1030.7hPa Calm   2.0mph /  3.2km/h 30% 0.00in /  0mm 0.0 W/m2
18:39 56.8 °F /  13.8 °C 26.6 °F /  -3 °C 30.44in /  1030.7hPa Calm   2.0mph /  3.2km/h 31% 0.00in /  0mm 0.0 W/m2
18:46 56.5 °F /  13.6 °C 26.2 °F /  -3.2 °C 30.45in /  1031hPa Calm   2.0mph /  3.2km/h 31% 0.00in /  0mm 0.0 W/m2
18:52 56.1 °F /  13.4 °C 25.9 °F /  -3.4 °C 30.45in /  1031hPa Calm     31% 0.00in /  0mm 0.0 W/m2
18:58 55.8 °F /  13.2 °C 25.5 °F /  -3.6 °C 30.45in /  1031hPa ENE 0.9mph /  1.4km/h 1.0mph /  1.6km/h 31% 0.00in /  0mm 0.0 W/m2
19:04 55.6 °F /  13.1 °C 25.3 °F /  -3.7 °C 30.45in /  1031hPa Calm   1.0mph /  1.6km/h 31% 0.00in /  0mm 0.0 W/m2
19:10 55.2 °F /  12.9 °C 25.9 °F /  -3.4 °C 30.45in /  1031hPa Calm     32% 0.00in /  0mm 0.0 W/m2
19:16 55.0 °F /  12.8 °C 25.7 °F /  -3.5 °C 30.45in /  1031hPa Calm   1.0mph /  1.6km/h 32% 0.00in /  0mm 0.0 W/m2
19:22 54.7 °F /  12.6 °C 25.3 °F /  -3.7 °C 30.45in /  1031hPa Calm   1.0mph /  1.6km/h 32% 0.00in /  0mm 0.0 W/m2
19:29 54.1 °F /  12.3 °C 25.7 °F /  -3.5 °C 30.45in /  1031hPa Calm   1.0mph /  1.6km/h 33% 0.00in /  0mm 0.0 W/m2
19:35 53.8 °F /  12.1 °C 25.3 °F /  -3.7 °C 30.45in /  1031hPa Calm     33% 0.00in /  0mm 0.0 W/m2
19:41 53.4 °F /  11.9 °C 25.0 °F /  -3.9 °C 30.45in /  1031hPa Calm     33% 0.00in /  0mm 0.0 W/m2
19:47 53.1 °F /  11.7 °C 25.3 °F /  -3.7 °C 30.45in /  1031hPa Calm     34% 0.00in /  0mm 0.0 W/m2
19:53 52.9 °F /  11.6 °C 25.3 °F /  -3.7 °C 30.45in /  1031hPa Calm   2.0mph /  3.2km/h 34% 0.00in /  0mm 0.0 W/m2
19:59 52.5 °F /  11.4 °C 25.0 °F /  -3.9 °C 30.45in /  1031hPa Calm     34% 0.00in /  0mm 0.0 W/m2
20:05 52.3 °F /  11.3 °C 25.5 °F /  -3.6 °C 30.46in /  1031.4hPa Calm   1.0mph /  1.6km/h 35% 0.00in /  0mm 0.0 W/m2
20:11 52.2 °F /  11.2 °C 25.3 °F /  -3.7 °C 30.46in /  1031.4hPa Calm   1.0mph /  1.6km/h 35% 0.00in /  0mm 0.0 W/m2
20:18 52.0 °F /  11.1 °C 25.2 °F /  -3.8 °C 30.46in /  1031.4hPa Calm   2.0mph /  3.2km/h 35% 0.00in /  0mm 0.0 W/m2
20:24 51.6 °F /  10.9 °C 24.8 °F /  -4 °C 30.47in /  1031.7hPa Calm     35% 0.00in /  0mm 0.0 W/m2
20:30 51.4 °F /  10.8 °C 25.3 °F /  -3.7 °C 30.47in /  1031.7hPa Calm   1.0mph /  1.6km/h 36% 0.00in /  0mm 0.0 W/m2
20:36 51.3 °F /  10.7 °C 25.2 °F /  -3.8 °C 30.47in /  1031.7hPa Calm   1.0mph /  1.6km/h 36% 0.00in /  0mm 0.0 W/m2
20:42 50.9 °F /  10.5 °C 24.8 °F /  -4 °C 30.47in /  1031.7hPa Calm     36% 0.00in /  0mm 0.0 W/m2
20:48 50.5 °F /  10.3 °C 24.6 °F /  -4.1 °C 30.47in /  1031.7hPa Calm     36% 0.00in /  0mm 0.0 W/m2
20:54 50.4 °F /  10.2 °C 25.0 °F /  -3.9 °C 30.47in /  1031.7hPa Calm     37% 0.00in /  0mm 0.0 W/m2
21:00 50.2 °F /  10.1 °C 25.0 °F /  -3.9 °C 30.48in /  1032.1hPa Calm   1.0mph /  1.6km/h 37% 0.00in /  0mm 0.0 W/m2
21:06 50.0 °F /  10 °C 24.8 °F /  -4 °C 30.48in /  1032.1hPa ENE 2.0mph /  3.2km/h 2.0mph /  3.2km/h 37% 0.00in /  0mm 0.0 W/m2
21:13 49.8 °F /  9.9 °C 24.6 °F /  -4.1 °C 30.48in /  1032.1hPa Calm   1.0mph /  1.6km/h 37% 0.00in /  0mm 0.0 W/m2
21:19 49.8 °F /  9.9 °C 25.2 °F /  -3.8 °C 30.48in /  1032.1hPa Calm   1.0mph /  1.6km/h 38% 0.00in /  0mm 0.0 W/m2
21:25 49.6 °F /  9.8 °C 25.0 °F /  -3.9 °C 30.48in /  1032.1hPa Calm   3.0mph /  4.8km/h 38% 0.00in /  0mm 0.0 W/m2
21:31 49.5 °F /  9.7 °C 25.0 °F /  -3.9 °C 30.49in /  1032.4hPa Calm     38% 0.00in /  0mm 0.0 W/m2
21:37 49.5 °F /  9.7 °C 25.0 °F /  -3.9 °C 30.49in /  1032.4hPa Calm     38% 0.00in /  0mm 0.0 W/m2
21:43 49.3 °F /  9.6 °C 24.8 °F /  -4 °C 30.49in /  1032.4hPa Calm     38% 0.00in /  0mm 0.0 W/m2
21:49 49.1 °F /  9.5 °C 24.6 °F /  -4.1 °C 30.50in /  1032.7hPa Calm     38% 0.00in /  0mm 0.0 W/m2
21:55 48.9 °F /  9.4 °C 25.0 °F /  -3.9 °C 30.50in /  1032.7hPa Calm     39% 0.00in /  0mm 0.0 W/m2
22:02 48.9 °F /  9.4 °C 25.0 °F /  -3.9 °C 30.50in /  1032.7hPa Calm     39% 0.00in /  0mm 0.0 W/m2
22:08 48.9 °F /  9.4 °C 25.0 °F /  -3.9 °C 30.50in /  1032.7hPa Calm     39% 0.00in /  0mm 0.0 W/m2
22:14 48.9 °F /  9.4 °C 25.0 °F /  -3.9 °C 30.50in /  1032.7hPa Calm     39% 0.00in /  0mm 0.0 W/m2
22:20 48.9 °F /  9.4 °C 25.0 °F /  -3.9 °C 30.50in /  1032.7hPa Calm   2.0mph /  3.2km/h 39% 0.00in /  0mm 0.0 W/m2
22:26 48.9 °F /  9.4 °C 25.0 °F /  -3.9 °C 30.49in /  1032.4hPa Calm     39% 0.00in /  0mm 0.0 W/m2
22:32 48.9 °F /  9.4 °C 25.0 °F /  -3.9 °C 30.50in /  1032.7hPa Calm   1.0mph /  1.6km/h 39% 0.00in /  0mm 0.0 W/m2
22:38 48.9 °F /  9.4 °C 25.0 °F /  -3.9 °C 30.50in /  1032.7hPa Calm     39% 0.00in /  0mm 0.0 W/m2
22:45 48.7 °F /  9.3 °C 25.5 °F /  -3.6 °C 30.50in /  1032.7hPa Calm     40% 0.00in /  0mm 0.0 W/m2
22:51 48.6 °F /  9.2 °C 25.3 °F /  -3.7 °C 30.49in /  1032.4hPa Calm     40% 0.00in /  0mm 0.0 W/m2
22:57 48.4 °F /  9.1 °C 25.2 °F /  -3.8 °C 30.49in /  1032.4hPa Calm     40% 0.00in /  0mm 0.0 W/m2
23:03 48.4 °F /  9.1 °C 25.2 °F /  -3.8 °C 30.49in /  1032.4hPa Calm     40% 0.00in /  0mm 0.0 W/m2
23:09 48.6 °F /  9.2 °C 25.3 °F /  -3.7 °C 30.50in /  1032.7hPa Calm     40% 0.00in /  0mm 0.0 W/m2
23:15 48.6 °F /  9.2 °C 25.3 °F /  -3.7 °C 30.50in /  1032.7hPa Calm     40% 0.00in /  0mm 0.0 W/m2
23:21 48.7 °F /  9.3 °C 25.5 °F /  -3.6 °C 30.50in /  1032.7hPa NE 0.9mph /  1.4km/h 1.0mph /  1.6km/h 40% 0.00in /  0mm 0.0 W/m2
23:27 49.1 °F /  9.5 °C 25.2 °F /  -3.8 °C 30.50in /  1032.7hPa NE 2.0mph /  3.2km/h 5.0mph /  8km/h 39% 0.00in /  0mm 0.0 W/m2
23:33 49.6 °F /  9.8 °C 25.0 °F /  -3.9 °C 30.50in /  1032.7hPa ENE 2.0mph /  3.2km/h 6.0mph /  9.7km/h 38% 0.00in /  0mm 0.0 W/m2
23:39 50.2 °F /  10.1 °C 25.5 °F /  -3.6 °C 30.50in /  1032.7hPa East 2.0mph /  3.2km/h 4.0mph /  6.4km/h 38% 0.00in /  0mm 0.0 W/m2
23:45 50.4 °F /  10.2 °C 25.7 °F /  -3.5 °C 30.49in /  1032.4hPa Calm   5.0mph /  8km/h 38% 0.00in /  0mm 0.0 W/m2
23:51 50.4 °F /  10.2 °C 25.0 °F /  -3.9 °C 30.49in /  1032.4hPa NE 2.0mph /  3.2km/h 5.0mph /  8km/h 37% 0.00in /  0mm 0.0 W/m2
23:57 50.4 °F /  10.2 °C 25.0 °F /  -3.9 °C 30.50in /  1032.7hPa Calm   4.0mph /  6.4km/h 37% 0.00in /  0mm 0.0 W/m2
Olympia, Windhoek, Namibia
Compliments of Weather Underground - 3 mb